createdAt,value
2023-05-15T00:01:26.568Z,12.85
2023-05-15T00:03:55.569Z,12.95
2023-05-15T00:06:23.924Z,11.63
2023-05-15T00:08:52.432Z,11.82
2023-05-15T00:11:21.493Z,12.68
2023-05-15T00:13:50.946Z,11.98
2023-05-15T00:16:19.267Z,12.40
2023-05-15T00:18:47.842Z,12.30
2023-05-15T00:21:17.132Z,12.10
2023-05-15T00:23:47.591Z,12.00
2023-05-15T00:26:15.953Z,12.18
2023-05-15T00:28:44.606Z,13.00
2023-05-15T00:31:14.929Z,11.65
2023-05-15T00:33:43.690Z,11.40
2023-05-15T00:36:11.945Z,11.75
2023-05-15T00:38:40.559Z,12.10
2023-05-15T00:41:10.852Z,11.82
2023-05-15T00:43:40.977Z,11.68
2023-05-15T00:46:10.471Z,11.70
2023-05-15T00:48:39.544Z,11.20
2023-05-15T00:51:08.168Z,11.02
2023-05-15T00:53:38.625Z,10.95
2023-05-15T00:56:09.446Z,11.05
2023-05-15T00:58:39.081Z,10.97
2023-05-15T01:01:08.371Z,11.00
2023-05-15T01:03:38.633Z,10.85
2023-05-15T01:06:07.028Z,11.40
2023-05-15T01:08:43.928Z,11.02
2023-05-15T01:11:14.807Z,11.65
2023-05-15T01:13:44.539Z,13.30
2023-05-15T01:16:13.030Z,11.40
2023-05-15T01:18:41.631Z,10.65
2023-05-15T01:21:25.294Z,10.32
2023-05-15T01:24:24.715Z,9.57
2023-05-15T01:27:15.613Z,9.48
2023-05-15T01:29:51.716Z,10.13
2023-05-15T01:32:30.088Z,10.27
2023-05-15T01:35:11.255Z,9.43
2023-05-15T01:37:43.172Z,10.00
2023-05-15T01:40:16.496Z,10.07
2023-05-15T01:42:55.423Z,8.70
2023-05-15T01:45:25.212Z,9.80
2023-05-15T01:47:55.923Z,9.20
2023-05-15T01:50:26.868Z,9.75
2023-05-15T01:52:58.638Z,9.30
2023-05-15T01:55:31.420Z,9.38
2023-05-15T01:58:03.788Z,10.80
2023-05-15T02:00:33.190Z,10.25
2023-05-15T02:03:02.430Z,10.40
2023-05-15T02:05:31.682Z,10.75
2023-05-15T02:08:02.679Z,10.85
2023-05-15T02:10:33.181Z,10.82
2023-05-15T02:13:02.039Z,11.13
2023-05-15T02:15:31.250Z,11.82
2023-05-15T02:18:00.031Z,11.82
2023-05-15T02:20:28.963Z,11.95
2023-05-15T02:22:57.161Z,11.88
2023-05-15T02:25:41.776Z,11.63
2023-05-15T02:28:18.186Z,11.48
2023-05-15T02:30:55.577Z,11.65
2023-05-15T02:33:42.827Z,11.93
2023-05-15T02:36:22.804Z,12.13
2023-05-15T02:38:53.770Z,12.40
2023-05-15T02:41:23.878Z,11.77
2023-05-15T02:43:55.345Z,11.23
2023-05-15T02:46:25.555Z,11.07
2023-05-15T02:48:55.570Z,11.70
2023-05-15T02:51:24.269Z,11.50
2023-05-15T02:53:52.575Z,12.20
2023-05-15T02:56:21.552Z,11.60
2023-05-15T02:58:50.008Z,12.20
2023-05-15T03:01:18.638Z,11.80
2023-05-15T03:03:47.848Z,11.52
2023-05-15T03:06:17.213Z,12.00
2023-05-15T03:08:45.585Z,11.73
2023-05-15T03:11:14.382Z,12.30
2023-05-15T03:13:42.679Z,11.85
2023-05-15T03:16:11.454Z,12.00
2023-05-15T03:18:43.408Z,11.50
2023-05-15T03:21:12.003Z,12.55
2023-05-15T03:23:40.424Z,11.90
2023-05-15T03:26:09.408Z,13.45
2023-05-15T03:28:38.008Z,12.93
2023-05-15T03:31:08.649Z,13.20
2023-05-15T03:33:38.139Z,12.60
2023-05-15T03:36:07.620Z,12.23
2023-05-15T03:38:35.778Z,15.30
2023-05-15T03:41:04.334Z,13.00
2023-05-15T03:43:33.797Z,12.23
2023-05-15T03:46:02.408Z,14.15
2023-05-15T03:48:30.745Z,12.13
2023-05-15T03:50:59.443Z,11.63
2023-05-15T03:53:27.829Z,11.50
2023-05-15T03:55:57.106Z,12.13
2023-05-15T03:58:25.528Z,11.55
2023-05-15T04:00:54.452Z,12.18
2023-05-15T04:03:22.951Z,12.30
2023-05-15T04:05:52.584Z,12.73
2023-05-15T04:08:20.780Z,12.32
2023-05-15T04:10:49.277Z,12.40
2023-05-15T04:13:17.677Z,12.10
2023-05-15T04:15:46.703Z,11.90
2023-05-15T04:18:14.924Z,13.00
2023-05-15T04:20:43.493Z,11.77
2023-05-15T04:23:11.745Z,13.35
2023-05-15T04:25:45.455Z,11.52
2023-05-15T04:28:14.493Z,10.45
2023-05-15T04:30:43.053Z,8.55
2023-05-15T04:33:11.366Z,7.28
2023-05-15T04:35:40.622Z,7.22
2023-05-15T04:38:08.883Z,11.60
2023-05-15T04:40:37.400Z,12.73
2023-05-15T04:43:06.042Z,12.00
2023-05-15T04:45:34.677Z,11.80
2023-05-15T04:48:04.330Z,12.32
2023-05-15T04:50:32.973Z,14.23
2023-05-15T04:53:01.255Z,14.30
2023-05-15T04:55:31.114Z,17.50
2023-05-15T04:57:59.995Z,16.45
2023-05-15T05:00:29.226Z,15.30
2023-05-15T05:02:57.469Z,15.85
2023-05-15T05:05:26.513Z,16.70
2023-05-15T05:07:54.952Z,15.43
2023-05-15T05:10:23.565Z,14.45
2023-05-15T05:12:51.762Z,14.05
2023-05-15T05:15:20.596Z,11.60
2023-05-15T05:17:48.912Z,10.02
2023-05-15T05:20:17.779Z,10.55
2023-05-15T05:22:46.084Z,10.63
2023-05-15T05:25:14.799Z,10.57
2023-05-15T05:27:43.327Z,9.10
2023-05-15T05:30:12.462Z,9.80
2023-05-15T05:32:40.815Z,10.00
2023-05-15T05:35:09.672Z,8.80
2023-05-15T05:37:39.608Z,8.35
2023-05-15T05:40:10.923Z,9.00
2023-05-15T05:42:39.257Z,8.52
2023-05-15T05:45:08.203Z,8.65
2023-05-15T05:47:36.533Z,8.85
2023-05-15T05:50:05.942Z,8.70
2023-05-15T05:52:34.190Z,8.77
2023-05-15T05:55:02.728Z,8.55
2023-05-15T05:57:31.173Z,8.57
2023-05-15T05:59:59.857Z,8.68
2023-05-15T06:04:57.571Z,9.30
2023-05-15T06:07:26.099Z,9.50
2023-05-15T06:09:54.606Z,9.45
2023-05-15T06:12:23.192Z,8.85
2023-05-15T06:14:51.854Z,8.82
2023-05-15T06:17:20.118Z,8.57
2023-05-15T06:19:48.726Z,8.50
2023-05-15T06:22:17.000Z,8.10
2023-05-15T06:24:46.086Z,8.10
2023-05-15T06:27:14.367Z,8.93
2023-05-15T06:29:42.997Z,8.40
2023-05-15T06:32:11.313Z,8.20
2023-05-15T06:34:39.864Z,7.82
2023-05-15T06:37:08.123Z,8.70
2023-05-15T06:39:36.837Z,8.95
2023-05-15T06:42:05.732Z,8.88
2023-05-15T06:44:36.511Z,8.85
2023-05-15T06:47:05.200Z,8.88
2023-05-15T06:49:34.006Z,9.23
2023-05-15T06:52:02.298Z,8.88
2023-05-15T06:54:30.834Z,9.48
2023-05-15T06:56:59.078Z,9.30
2023-05-15T06:59:27.672Z,9.23
2023-05-15T07:01:56.248Z,12.95
2023-05-15T07:04:24.851Z,26.83
2023-05-15T07:06:53.054Z,54.42
2023-05-15T07:09:21.752Z,95.22
2023-05-15T07:11:49.905Z,54.78
2023-05-15T07:14:18.600Z,16.92
2023-05-15T07:16:47.416Z,12.60
2023-05-15T07:19:21.325Z,11.88
2023-05-15T07:21:49.698Z,10.57
2023-05-15T07:24:18.389Z,13.80
2023-05-15T07:26:57.425Z,14.45
2023-05-15T07:29:27.122Z,10.80
2023-05-15T07:31:55.637Z,8.95
2023-05-15T07:34:24.317Z,8.38
2023-05-15T07:36:52.544Z,9.35
2023-05-15T07:39:21.145Z,8.60
2023-05-15T07:41:49.422Z,9.38
2023-05-15T07:44:17.966Z,8.85
2023-05-15T07:46:47.497Z,8.57
2023-05-15T07:49:16.179Z,8.73
2023-05-15T07:51:44.689Z,8.55
2023-05-15T07:54:13.236Z,8.57
2023-05-15T07:56:41.782Z,9.10
2023-05-15T07:59:10.353Z,10.43
2023-05-15T08:01:38.765Z,8.98
2023-05-15T08:04:09.029Z,8.13
2023-05-15T08:06:38.526Z,7.97
2023-05-15T08:09:07.293Z,7.30
2023-05-15T08:11:36.639Z,6.90
2023-05-15T08:14:05.257Z,7.40
2023-05-15T08:16:34.381Z,6.50
2023-05-15T08:19:05.281Z,6.63
2023-05-15T08:21:34.185Z,7.07
2023-05-15T08:24:02.877Z,6.82
2023-05-15T08:26:31.324Z,6.88
2023-05-15T08:28:59.891Z,7.15
2023-05-15T08:31:28.266Z,6.82
2023-05-15T08:33:56.834Z,6.60
2023-05-15T08:36:25.163Z,6.75
2023-05-15T08:38:53.829Z,6.82
2023-05-15T08:41:40.417Z,8.20
2023-05-15T08:44:11.165Z,8.70
2023-05-15T08:46:40.165Z,7.30
2023-05-15T08:49:17.985Z,7.05
2023-05-15T08:51:48.229Z,7.00
2023-05-15T08:54:17.069Z,7.78
2023-05-15T08:56:45.291Z,6.60
2023-05-15T08:59:13.844Z,7.15
2023-05-15T09:01:42.870Z,7.28
2023-05-15T09:04:11.727Z,6.85
2023-05-15T09:06:41.992Z,7.00
2023-05-15T09:09:13.796Z,7.20
2023-05-15T09:11:44.737Z,7.10
2023-05-15T09:14:13.342Z,6.97
2023-05-15T09:16:41.605Z,7.22
2023-05-15T09:19:11.496Z,6.93
2023-05-15T09:21:40.007Z,7.65
2023-05-15T09:24:29.248Z,8.40
2023-05-15T09:27:03.470Z,8.23
2023-05-15T09:29:34.313Z,7.78
2023-05-15T09:32:04.352Z,7.82
2023-05-15T09:34:38.245Z,8.13
2023-05-15T09:37:08.806Z,8.43
2023-05-15T09:39:44.378Z,9.50
2023-05-15T09:42:14.906Z,8.02
2023-05-15T09:44:44.720Z,8.23
2023-05-15T09:47:14.411Z,8.43
2023-05-15T09:49:47.240Z,9.00
2023-05-15T09:52:16.392Z,8.45
2023-05-15T09:54:50.110Z,8.70
2023-05-15T09:57:22.373Z,8.48
2023-05-15T09:59:50.944Z,9.25
2023-05-15T10:02:31.680Z,9.27
2023-05-15T10:05:01.668Z,9.30
2023-05-15T10:07:36.652Z,9.55
2023-05-15T10:10:05.896Z,9.30
2023-05-15T10:12:36.715Z,9.02
2023-05-15T10:15:06.727Z,9.23
2023-05-15T10:17:36.588Z,9.80
2023-05-15T10:20:07.378Z,10.57
2023-05-15T10:22:41.377Z,10.27
2023-05-15T10:25:21.367Z,10.38
2023-05-15T10:27:52.302Z,10.60
2023-05-15T10:30:22.170Z,10.63
2023-05-15T10:32:51.359Z,10.27
2023-05-15T10:35:20.190Z,10.32
2023-05-15T10:37:49.300Z,10.82
2023-05-15T10:40:18.143Z,10.48
2023-05-15T10:42:50.187Z,11.27
2023-05-15T10:45:37.243Z,10.50
2023-05-15T10:48:08.527Z,10.85
2023-05-15T10:50:37.798Z,11.33
2023-05-15T10:53:06.700Z,10.68
2023-05-15T10:55:36.971Z,11.48
2023-05-15T10:58:10.222Z,11.27
2023-05-15T11:00:43.987Z,11.30
2023-05-15T11:03:16.763Z,11.27
2023-05-15T11:06:08.848Z,11.27
2023-05-15T11:11:07.115Z,12.60
2023-05-15T11:14:16.524Z,11.32
2023-05-15T11:16:53.976Z,12.98
2023-05-15T11:19:39.604Z,13.57
2023-05-15T11:22:27.440Z,13.20
2023-05-15T11:25:10.099Z,12.88
2023-05-15T11:27:46.480Z,13.52
2023-05-15T11:30:22.719Z,13.35
2023-05-15T11:33:09.000Z,14.23
2023-05-15T11:35:43.648Z,13.68
2023-05-15T11:38:17.572Z,12.55
2023-05-15T11:40:48.264Z,17.10
2023-05-15T11:43:22.128Z,18.75
2023-05-15T11:45:58.666Z,16.80
2023-05-15T11:48:35.120Z,14.18
2023-05-15T11:51:05.659Z,13.73
2023-05-15T11:53:34.112Z,12.35
2023-05-15T11:56:02.962Z,12.02
2023-05-15T11:58:32.004Z,12.15
2023-05-15T12:01:00.541Z,12.38
2023-05-15T12:03:34.716Z,12.38
2023-05-15T12:06:04.228Z,12.18
2023-05-15T12:08:33.659Z,12.80
2023-05-15T12:11:03.707Z,11.98
2023-05-15T12:13:33.487Z,12.43
2023-05-15T12:16:05.546Z,11.73
2023-05-15T12:18:34.444Z,10.75
2023-05-15T12:21:05.077Z,10.63
2023-05-15T12:23:33.524Z,10.85
2023-05-15T12:26:03.549Z,14.30
2023-05-15T12:28:35.752Z,12.13
2023-05-15T12:31:04.621Z,12.68
2023-05-15T12:33:33.195Z,11.38
2023-05-15T12:36:02.133Z,10.68
2023-05-15T12:38:30.914Z,9.00
2023-05-15T12:40:59.912Z,8.88
2023-05-15T12:43:28.736Z,9.40
2023-05-15T12:45:58.195Z,9.20
2023-05-15T12:48:32.360Z,8.40
2023-05-15T12:51:06.930Z,7.43
2023-05-15T12:53:35.803Z,7.10
2023-05-15T12:56:04.915Z,7.47
2023-05-15T12:58:33.845Z,8.02
2023-05-15T13:01:03.767Z,7.55
2023-05-15T13:03:32.728Z,8.07
2023-05-15T13:06:03.725Z,7.38
2023-05-15T13:08:33.243Z,7.22
2023-05-15T13:11:01.974Z,7.60
2023-05-15T13:13:44.358Z,7.22
2023-05-15T13:16:33.120Z,8.07
2023-05-15T13:19:01.528Z,6.95
2023-05-15T13:21:31.345Z,7.05
2023-05-15T13:23:59.679Z,6.78
2023-05-15T13:26:28.319Z,7.38
2023-05-15T13:28:56.750Z,6.30
2023-05-15T13:31:26.099Z,6.68
2023-05-15T13:33:54.671Z,6.60
2023-05-15T13:36:23.296Z,6.90
2023-05-15T13:38:58.012Z,13.88
2023-05-15T13:41:28.592Z,13.23
2023-05-15T13:44:08.138Z,7.45
2023-05-15T13:46:44.664Z,8.60
2023-05-15T13:49:31.716Z,9.07
2023-05-15T13:52:00.511Z,7.90
2023-05-15T13:54:28.763Z,8.77
2023-05-15T13:56:57.360Z,8.85
2023-05-15T13:59:25.780Z,8.93
2023-05-15T14:01:54.378Z,8.50
2023-05-15T14:04:22.672Z,9.10
2023-05-15T14:06:51.269Z,8.80
2023-05-15T14:09:23.187Z,8.93
2023-05-15T14:11:51.853Z,8.70
2023-05-15T14:14:20.110Z,11.43
2023-05-15T14:16:48.724Z,11.95
2023-05-15T14:19:17.185Z,11.80
2023-05-15T14:21:45.778Z,9.15
2023-05-15T14:24:14.061Z,9.05
2023-05-15T14:26:44.473Z,16.60
2023-05-15T14:29:14.534Z,13.60
2023-05-15T14:31:49.378Z,40.90
2023-05-15T14:34:18.979Z,10.35
2023-05-15T14:36:48.368Z,9.23
2023-05-15T14:40:08.162Z,9.65
2023-05-15T14:42:37.251Z,9.95
2023-05-15T14:45:05.730Z,9.05
2023-05-15T14:47:34.429Z,13.18
2023-05-15T14:50:03.417Z,13.18
2023-05-15T14:52:31.995Z,13.38
2023-05-15T14:55:09.676Z,12.73
2023-05-15T14:57:39.082Z,11.82
2023-05-15T15:00:09.819Z,9.25
2023-05-15T15:02:44.447Z,8.93
2023-05-15T15:05:13.286Z,9.85
2023-05-15T15:08:00.737Z,9.70
2023-05-15T15:10:29.798Z,9.65
2023-05-15T15:13:01.079Z,7.75
2023-05-15T15:15:31.452Z,7.72
2023-05-15T15:18:01.816Z,8.48
2023-05-15T15:20:55.782Z,11.07
2023-05-15T15:23:31.677Z,12.35
2023-05-15T15:26:00.228Z,10.90
2023-05-15T15:28:33.586Z,9.18
2023-05-15T15:31:01.904Z,10.52
2023-05-15T15:33:38.419Z,21.20
2023-05-15T15:36:07.000Z,14.50
2023-05-15T15:38:36.072Z,23.67
2023-05-15T15:41:08.340Z,9.60
2023-05-15T15:43:37.319Z,8.65
2023-05-15T15:46:05.970Z,9.95
2023-05-15T15:48:34.738Z,9.70
2023-05-15T15:51:03.264Z,10.15
2023-05-15T15:53:34.473Z,10.23
2023-05-15T15:56:02.919Z,11.23
2023-05-15T15:58:31.601Z,9.43
2023-05-15T16:01:00.298Z,10.10
2023-05-15T16:03:29.057Z,10.65
2023-05-15T16:05:59.741Z,12.70
2023-05-15T16:08:29.126Z,12.35
2023-05-15T16:10:58.094Z,10.57
2023-05-15T16:13:33.480Z,30.08
2023-05-15T16:16:01.834Z,20.63
2023-05-15T16:18:30.509Z,17.65
2023-05-15T16:20:58.825Z,28.73
2023-05-15T16:23:27.504Z,16.05
2023-05-15T16:25:56.980Z,17.05
2023-05-15T16:28:25.581Z,18.15
2023-05-15T16:31:04.023Z,15.85
2023-05-15T16:33:36.578Z,13.88
2023-05-15T16:36:08.569Z,11.05
2023-05-15T16:38:37.230Z,14.40
2023-05-15T16:41:41.075Z,15.20
2023-05-15T16:44:13.253Z,15.15
2023-05-15T16:46:43.043Z,14.02
2023-05-15T16:49:11.703Z,13.13
2023-05-15T16:51:44.700Z,15.57
2023-05-15T16:54:20.115Z,11.60
2023-05-15T16:56:49.673Z,10.95
2023-05-15T16:59:18.419Z,12.10
2023-05-15T17:01:46.825Z,13.45
2023-05-15T17:04:15.868Z,13.05
2023-05-15T17:06:44.620Z,20.95
2023-05-15T17:09:13.184Z,31.63
2023-05-15T17:11:41.448Z,23.83
2023-05-15T17:14:10.096Z,14.30
2023-05-15T17:16:38.548Z,20.60
2023-05-15T17:19:24.756Z,20.58
2023-05-15T17:21:56.727Z,16.13
2023-05-15T17:24:51.696Z,17.83
2023-05-15T17:27:22.765Z,24.45
2023-05-15T17:29:53.246Z,25.63
2023-05-15T17:32:22.104Z,23.85
2023-05-15T17:34:51.545Z,17.60
2023-05-15T17:37:29.644Z,25.48
2023-05-15T17:40:21.550Z,20.15
2023-05-15T17:42:56.647Z,26.10
2023-05-15T17:45:28.227Z,21.85
2023-05-15T17:48:03.788Z,30.63
2023-05-15T17:51:33.614Z,24.77
2023-05-15T17:53:44.181Z,24.85
2023-05-15T17:56:17.660Z,41.30
2023-05-15T17:58:57.733Z,42.83
2023-05-15T18:01:29.382Z,46.00
2023-05-15T18:04:10.770Z,35.47
2023-05-15T18:06:39.672Z,15.18
2023-05-15T18:09:11.601Z,20.42
2023-05-15T18:11:41.907Z,26.33
2023-05-15T18:14:45.423Z,22.13
2023-05-15T18:17:18.603Z,15.65
2023-05-15T18:19:56.427Z,15.98
2023-05-15T18:22:25.028Z,19.77
2023-05-15T18:24:53.688Z,19.83
2023-05-15T18:27:22.365Z,15.55
2023-05-15T18:29:51.663Z,13.95
2023-05-15T18:32:20.231Z,13.88
2023-05-15T18:34:48.609Z,14.52
2023-05-15T18:37:17.167Z,18.17
2023-05-15T18:39:45.732Z,26.15
2023-05-15T18:42:14.468Z,51.30
2023-05-15T18:44:42.796Z,46.08
2023-05-15T18:47:11.501Z,24.27
2023-05-15T18:49:39.782Z,24.08
2023-05-15T18:52:08.924Z,20.23
2023-05-15T18:54:38.693Z,21.25
2023-05-15T18:57:08.292Z,22.02
2023-05-15T18:59:36.602Z,20.65
2023-05-15T19:02:05.467Z,18.95
2023-05-15T19:04:52.205Z,19.55
2023-05-15T19:07:20.923Z,19.05
2023-05-15T19:09:49.096Z,27.70
2023-05-15T19:12:17.725Z,25.73
2023-05-15T19:14:46.155Z,24.17
2023-05-15T19:17:15.872Z,22.60
2023-05-15T19:19:44.123Z,22.25
2023-05-15T19:22:13.020Z,22.63
2023-05-15T19:24:41.215Z,26.40
2023-05-15T19:27:09.769Z,26.25
2023-05-15T19:29:38.010Z,26.52
2023-05-15T19:32:07.369Z,24.23
2023-05-15T19:34:36.694Z,23.10
2023-05-15T19:37:05.710Z,29.25
2023-05-15T19:39:34.888Z,28.73
2023-05-15T19:42:04.898Z,31.52
2023-05-15T19:44:33.322Z,27.70
2023-05-15T19:47:02.077Z,27.85
2023-05-15T19:49:30.424Z,28.38
2023-05-15T19:51:58.965Z,28.52
2023-05-15T19:54:27.232Z,25.77
2023-05-15T19:56:57.815Z,23.13
2023-05-15T19:59:26.069Z,20.50
2023-05-15T20:01:54.980Z,20.00
2023-05-15T20:04:23.442Z,19.08
2023-05-15T20:06:52.164Z,18.73
2023-05-15T20:09:20.426Z,18.08
2023-05-15T20:11:49.382Z,18.48
2023-05-15T20:14:17.980Z,18.45
2023-05-15T20:16:47.930Z,17.83
2023-05-15T20:19:22.402Z,16.63
2023-05-15T20:21:51.165Z,16.77
2023-05-15T20:24:19.901Z,15.10
2023-05-15T20:26:48.526Z,16.02
2023-05-15T20:29:18.275Z,16.88
2023-05-15T20:31:47.620Z,16.25
2023-05-15T20:34:16.286Z,16.25
2023-05-15T20:36:44.934Z,16.13
2023-05-15T20:39:14.316Z,16.88
2023-05-15T20:42:08.527Z,15.65
2023-05-15T20:44:39.867Z,15.25
2023-05-15T20:49:37.511Z,15.02
2023-05-15T20:52:06.359Z,14.10
2023-05-15T20:54:35.121Z,14.70
2023-05-15T20:57:04.450Z,15.60
2023-05-15T20:59:33.013Z,14.82
2023-05-15T21:02:02.816Z,15.10
2023-05-15T21:04:31.449Z,14.90
2023-05-15T21:07:00.707Z,12.98
2023-05-15T21:09:29.002Z,13.57
2023-05-15T21:11:57.650Z,12.88
2023-05-15T21:14:26.362Z,13.52
2023-05-15T21:16:55.131Z,13.73
2023-05-15T21:19:23.568Z,12.98
2023-05-15T21:21:52.290Z,13.52
2023-05-15T21:24:20.639Z,13.48
2023-05-15T21:26:49.473Z,14.30
2023-05-15T21:29:17.794Z,13.77
2023-05-15T21:31:46.470Z,14.35
2023-05-15T21:34:14.691Z,14.88
2023-05-15T21:36:43.267Z,15.30
2023-05-15T21:39:11.870Z,15.27
2023-05-15T21:41:40.751Z,14.95
2023-05-15T21:44:09.034Z,15.73
2023-05-15T21:46:38.209Z,14.43
2023-05-15T21:49:06.862Z,14.10
2023-05-15T21:51:35.479Z,13.88
2023-05-15T21:54:04.801Z,13.77
2023-05-15T21:56:33.584Z,13.40
2023-05-15T21:59:02.316Z,12.82
2023-05-15T22:01:31.251Z,12.27
2023-05-15T22:03:59.686Z,12.23
2023-05-15T22:06:28.547Z,11.95
2023-05-15T22:08:57.616Z,12.00
2023-05-15T22:11:26.813Z,11.85
2023-05-15T22:13:55.146Z,11.75
2023-05-15T22:16:31.239Z,11.82
2023-05-15T22:19:02.532Z,11.15
2023-05-15T22:21:33.515Z,12.07
2023-05-15T22:24:04.165Z,12.23
2023-05-15T22:26:33.479Z,12.13
2023-05-15T22:29:01.818Z,12.40
2023-05-15T22:31:31.107Z,13.25
2023-05-15T22:34:00.416Z,13.48
2023-05-15T22:36:28.999Z,14.00
2023-05-15T22:38:57.779Z,14.07
2023-05-15T22:41:26.475Z,13.93
2023-05-15T22:43:55.435Z,14.27
2023-05-15T22:46:24.303Z,14.15
2023-05-15T22:48:53.111Z,15.10
2023-05-15T22:51:22.377Z,14.48
2023-05-15T22:53:50.796Z,15.25
2023-05-15T22:56:19.788Z,15.00
2023-05-15T22:58:48.322Z,15.07
2023-05-15T23:01:17.545Z,14.48
2023-05-15T23:03:46.384Z,14.75
2023-05-15T23:06:18.233Z,14.18
2023-05-15T23:08:46.573Z,15.15
2023-05-15T23:11:15.146Z,13.85
2023-05-15T23:13:43.486Z,13.75
2023-05-15T23:16:12.014Z,13.93
2023-05-15T23:18:40.763Z,14.25
2023-05-15T23:21:09.408Z,13.60
2023-05-15T23:23:37.772Z,13.25
2023-05-15T23:26:06.360Z,13.15
2023-05-15T23:28:35.449Z,13.32
2023-05-15T23:31:04.523Z,12.90
2023-05-15T23:33:34.052Z,12.18
2023-05-15T23:36:02.957Z,12.98
2023-05-15T23:38:31.483Z,12.68
2023-05-15T23:41:00.504Z,13.60
2023-05-15T23:43:28.938Z,12.10
2023-05-15T23:45:57.519Z,12.73
2023-05-15T23:48:25.953Z,12.50
2023-05-15T23:50:54.785Z,12.52
2023-05-15T23:53:23.300Z,12.65
2023-05-15T23:55:53.246Z,12.30
2023-05-15T23:58:21.965Z,12.45
